createdAt,value
2023-01-17T00:03:02.438Z,95472.96
2023-01-17T00:06:24.600Z,95473.45
2023-01-17T00:09:46.414Z,95467.29
2023-01-17T00:12:55.439Z,95466.83
2023-01-17T00:15:58.677Z,95470.42
2023-01-17T00:19:20.324Z,95478.91
2023-01-17T00:22:44.811Z,95476.58
2023-01-17T00:26:03.327Z,95474.77
2023-01-17T00:29:06.473Z,95478.36
2023-01-17T00:32:09.665Z,95479.73
2023-01-17T00:35:13.045Z,95479.79
2023-01-17T00:38:24.710Z,95485.47
2023-01-17T00:41:28.839Z,95476.92
2023-01-17T00:44:50.401Z,95475.25
2023-01-17T00:48:12.340Z,95481.98
2023-01-17T00:51:34.559Z,95490.91
2023-01-17T00:54:56.278Z,95496.48
2023-01-17T00:58:23.998Z,95493.73
2023-01-17T01:01:45.814Z,95495.77
2023-01-17T01:05:08.870Z,95490.98
2023-01-17T01:08:44.734Z,95477.87
2023-01-17T01:12:06.422Z,95471.76
2023-01-17T01:15:28.265Z,95473.24
2023-01-17T01:18:50.550Z,95469.20
2023-01-17T01:22:12.332Z,95466.69
2023-01-17T01:25:34.084Z,95464.30
2023-01-17T01:28:55.900Z,95470.02
2023-01-17T01:32:17.458Z,95473.45
2023-01-17T01:35:21.792Z,95478.69
2023-01-17T01:38:25.780Z,95487.09
2023-01-17T01:41:29.017Z,95485.67
2023-01-17T01:44:50.361Z,95484.09
2023-01-17T01:48:18.889Z,95492.02
2023-01-17T01:51:41.274Z,95492.38
2023-01-17T01:54:49.789Z,95492.97
2023-01-17T01:57:56.643Z,95490.46
2023-01-17T02:01:00.215Z,95490.08
2023-01-17T02:04:09.776Z,95483.07
2023-01-17T02:07:28.621Z,95480.04
2023-01-17T02:10:34.371Z,95479.08
2023-01-17T02:13:37.597Z,95483.55
2023-01-17T02:16:46.589Z,95485.57
2023-01-17T02:20:12.757Z,95483.83
2023-01-17T02:23:34.425Z,95486.83
2023-01-17T02:26:55.943Z,95487.38
2023-01-17T02:30:29.480Z,95489.37
2023-01-17T02:33:57.063Z,95488.74
2023-01-17T02:37:15.314Z,95489.11
2023-01-17T02:40:27.099Z,95482.70
2023-01-17T02:43:31.372Z,95480.02
2023-01-17T02:46:47.001Z,95478.04
2023-01-17T02:49:53.748Z,95479.05
2023-01-17T02:53:05.934Z,95478.99
2023-01-17T02:56:27.421Z,95472.23
2023-01-17T02:59:52.103Z,95477.11
2023-01-17T03:03:23.091Z,95470.96
2023-01-17T03:06:41.591Z,95464.19
2023-01-17T03:09:49.021Z,95473.56
2023-01-17T03:12:58.119Z,95476.56
2023-01-17T03:16:05.208Z,95475.42
2023-01-17T03:19:09.900Z,95470.71
2023-01-17T03:22:13.212Z,95465.02
2023-01-17T03:25:16.995Z,95468.11
2023-01-17T03:28:20.221Z,95464.64
2023-01-17T03:31:23.393Z,95468.15
2023-01-17T03:34:26.670Z,95473.14
2023-01-17T03:37:29.865Z,95476.75
2023-01-17T03:40:33.291Z,95483.34
2023-01-17T03:43:36.539Z,95494.82
2023-01-17T03:46:39.743Z,95500.38
2023-01-17T03:49:42.955Z,95496.13
2023-01-17T03:52:46.172Z,95498.65
2023-01-17T03:55:49.466Z,95496.80
2023-01-17T03:58:53.623Z,95503.11
2023-01-17T04:01:56.869Z,95510.26
2023-01-17T04:05:00.085Z,95517.25
2023-01-17T04:08:03.507Z,95512.17
2023-01-17T04:11:06.759Z,95518.19
2023-01-17T04:14:10.042Z,95517.60
2023-01-17T04:17:14.309Z,95523.59
2023-01-17T04:20:28.948Z,95518.31
2023-01-17T04:23:32.170Z,95517.07
2023-01-17T04:26:35.897Z,95511.80
2023-01-17T04:29:39.146Z,95508.86
2023-01-17T04:32:42.424Z,95511.81
2023-01-17T04:35:45.687Z,95517.39
2023-01-17T04:38:48.868Z,95521.74
2023-01-17T04:41:52.191Z,95529.52
2023-01-17T04:44:55.464Z,95539.88
2023-01-17T04:48:05.062Z,95545.40
2023-01-17T04:51:08.442Z,95542.37
2023-01-17T04:54:11.693Z,95540.22
2023-01-17T04:57:16.312Z,95543.60
2023-01-17T05:00:19.999Z,95543.17
2023-01-17T05:03:23.619Z,95541.94
2023-01-17T05:06:26.787Z,95549.30
2023-01-17T05:09:30.261Z,95552.45
2023-01-17T05:12:33.507Z,95555.14
2023-01-17T05:15:37.108Z,95562.34
2023-01-17T05:18:40.394Z,95562.94
2023-01-17T05:21:43.633Z,95564.70
2023-01-17T05:24:47.832Z,95567.62
2023-01-17T05:27:51.366Z,95569.48
2023-01-17T05:30:54.652Z,95564.41
2023-01-17T05:33:57.944Z,95559.61
2023-01-17T05:37:01.351Z,95562.30
2023-01-17T05:40:06.224Z,95559.55
2023-01-17T05:43:09.545Z,95551.49
2023-01-17T05:46:12.796Z,95550.05
2023-01-17T05:49:16.056Z,95549.98
2023-01-17T05:52:19.667Z,95551.01
2023-01-17T05:55:23.679Z,95560.38
2023-01-17T05:58:27.070Z,95557.90
2023-01-17T06:01:30.410Z,95568.52
2023-01-17T06:04:33.683Z,95569.81
2023-01-17T06:07:37.006Z,95557.63
2023-01-17T06:10:40.262Z,95556.73
2023-01-17T06:13:43.552Z,95564.86
2023-01-17T06:16:47.796Z,95569.02
2023-01-17T06:19:51.025Z,95563.80
2023-01-17T06:22:55.382Z,95558.63
2023-01-17T06:26:03.210Z,95565.09
2023-01-17T06:29:06.383Z,95571.31
2023-01-17T06:32:09.641Z,95578.86
2023-01-17T06:35:12.850Z,95584.98
2023-01-17T06:38:16.426Z,95589.95
2023-01-17T06:41:19.602Z,95588.61
2023-01-17T06:44:23.206Z,95590.55
2023-01-17T06:47:26.490Z,95586.89
2023-01-17T06:50:30.343Z,95585.52
2023-01-17T06:53:33.501Z,95587.34
2023-01-17T06:56:37.006Z,95586.69
2023-01-17T06:59:40.411Z,95588.66
2023-01-17T07:02:47.802Z,95591.48
2023-01-17T07:05:51.427Z,95599.36
2023-01-17T07:08:59.062Z,95603.90
2023-01-17T07:12:03.411Z,95606.36
2023-01-17T07:15:08.226Z,95605.70
2023-01-17T07:18:11.535Z,95607.79
2023-01-17T07:21:16.464Z,95612.81
2023-01-17T07:24:21.336Z,95611.45
2023-01-17T07:27:30.507Z,95607.16
2023-01-17T07:30:34.143Z,95606.80
2023-01-17T07:33:37.730Z,95604.52
2023-01-17T07:36:41.083Z,95603.59
2023-01-17T07:39:44.485Z,95607.19
2023-01-17T07:42:47.751Z,95603.19
2023-01-17T07:45:51.589Z,95604.08
2023-01-17T07:48:54.822Z,95609.04
2023-01-17T07:51:58.024Z,95607.02
2023-01-17T07:55:01.816Z,95607.86
2023-01-17T07:58:06.900Z,95613.51
2023-01-17T08:01:13.032Z,95615.44
2023-01-17T08:04:16.796Z,95620.41
2023-01-17T08:07:20.351Z,95618.72
2023-01-17T08:10:23.586Z,95625.50
2023-01-17T08:13:29.810Z,95632.00
2023-01-17T08:16:33.451Z,95638.69
2023-01-17T08:19:36.772Z,95638.36
2023-01-17T08:22:40.524Z,95638.51
2023-01-17T08:25:44.131Z,95644.45
2023-01-17T08:28:56.669Z,95646.80
2023-01-17T08:32:00.068Z,95652.58
2023-01-17T08:35:03.462Z,95651.16
2023-01-17T08:38:06.743Z,95651.52
2023-01-17T08:41:10.041Z,95652.95
2023-01-17T08:44:15.946Z,95652.77
2023-01-17T08:47:19.511Z,95658.11
2023-01-17T08:50:24.664Z,95662.73
2023-01-17T08:53:28.105Z,95654.33
2023-01-17T08:56:33.654Z,95655.85
2023-01-17T08:59:37.101Z,95654.10
2023-01-17T09:02:40.546Z,95657.86
2023-01-17T09:05:43.882Z,95656.20
2023-01-17T09:08:48.104Z,95662.66
2023-01-17T09:11:51.329Z,95667.44
2023-01-17T09:14:55.169Z,95667.16
2023-01-17T09:17:58.713Z,95669.67
2023-01-17T09:21:31.957Z,95672.30
2023-01-17T09:24:35.226Z,95677.00
2023-01-17T09:27:38.481Z,95674.14
2023-01-17T09:30:41.841Z,95676.42
2023-01-17T09:33:45.277Z,95670.94
2023-01-17T09:36:49.351Z,95673.73
2023-01-17T09:39:52.612Z,95676.57
2023-01-17T09:43:03.765Z,95680.48
2023-01-17T09:46:22.820Z,95684.63
2023-01-17T09:49:45.148Z,95686.86
2023-01-17T09:52:49.016Z,95689.12
2023-01-17T09:56:18.817Z,95694.68
2023-01-17T09:59:45.633Z,95688.23
2023-01-17T10:03:15.932Z,95690.89
2023-01-17T10:06:37.718Z,95682.88
2023-01-17T10:09:51.329Z,95671.91
2023-01-17T10:13:25.984Z,95669.90
2023-01-17T10:16:38.101Z,95680.45
2023-01-17T10:19:59.992Z,95685.15
2023-01-17T10:23:22.347Z,95686.89
2023-01-17T10:26:26.905Z,95680.56
2023-01-17T10:29:35.252Z,95679.61
2023-01-17T10:32:47.904Z,95677.53
2023-01-17T10:36:04.642Z,95672.40
2023-01-17T10:39:31.126Z,95674.70
2023-01-17T10:42:52.333Z,95688.48
2023-01-17T10:45:59.505Z,95699.38
2023-01-17T10:49:04.161Z,95695.34
2023-01-17T10:52:23.138Z,95698.23
2023-01-17T10:55:35.039Z,95698.61
2023-01-17T10:58:38.429Z,95701.00
2023-01-17T11:01:42.351Z,95703.75
2023-01-17T11:04:49.924Z,95695.99
2023-01-17T11:08:15.865Z,95694.70
2023-01-17T11:11:25.191Z,95693.67
2023-01-17T11:14:30.895Z,95692.73
2023-01-17T11:17:48.993Z,95693.96
2023-01-17T11:21:06.580Z,95688.64
2023-01-17T11:24:16.127Z,95687.12
2023-01-17T11:27:30.037Z,95689.00
2023-01-17T11:30:34.007Z,95687.17
2023-01-17T11:33:49.316Z,95676.09
2023-01-17T11:37:30.455Z,95674.04
2023-01-17T11:40:39.797Z,95668.41
2023-01-17T11:43:53.039Z,95667.59
2023-01-17T11:47:14.419Z,95666.63
2023-01-17T11:50:25.654Z,95670.18
2023-01-17T11:53:38.570Z,95668.70
2023-01-17T11:56:46.156Z,95669.77
2023-01-17T11:59:52.136Z,95662.70
2023-01-17T12:03:07.498Z,95661.27
2023-01-17T12:06:11.829Z,95657.08
2023-01-17T12:09:27.616Z,95651.80
2023-01-17T12:13:08.402Z,95656.58
2023-01-17T12:16:36.310Z,95653.30
2023-01-17T12:20:00.891Z,95647.14
2023-01-17T12:23:16.202Z,95646.96
2023-01-17T12:26:23.999Z,95648.66
2023-01-17T12:29:33.978Z,95642.11
2023-01-17T12:33:02.933Z,95642.23
2023-01-17T12:36:17.749Z,95654.81
2023-01-17T12:39:27.393Z,95658.19
2023-01-17T12:42:43.182Z,95662.80
2023-01-17T12:45:49.582Z,95661.39
2023-01-17T12:49:15.517Z,95654.17
2023-01-17T12:52:30.317Z,95662.42
2023-01-17T12:55:59.782Z,95668.56
2023-01-17T12:59:13.112Z,95673.34
2023-01-17T13:02:22.457Z,95675.75
2023-01-17T13:05:47.234Z,95675.80
2023-01-17T13:08:57.050Z,95668.05
2023-01-17T13:12:05.558Z,95667.13
2023-01-17T13:15:23.018Z,95660.09
2023-01-17T13:18:31.036Z,95667.95
2023-01-17T13:21:35.417Z,95665.55
2023-01-17T13:24:50.972Z,95661.65
2023-01-17T13:28:23.268Z,95662.25
2023-01-17T13:31:44.640Z,95661.96
2023-01-17T13:35:12.405Z,95664.80
2023-01-17T13:38:15.733Z,95662.35
2023-01-17T13:41:34.439Z,95665.41
2023-01-17T13:44:37.792Z,95664.16
2023-01-17T13:47:42.049Z,95667.31
2023-01-17T13:50:47.407Z,95682.11
2023-01-17T13:53:50.676Z,95690.05
2023-01-17T13:57:23.152Z,95698.26
2023-01-17T14:00:26.357Z,95705.30
2023-01-17T14:03:51.592Z,95717.34
2023-01-17T14:07:01.239Z,95727.65
2023-01-17T14:10:47.386Z,95730.91
2023-01-17T14:13:51.776Z,95742.20
2023-01-17T14:16:55.511Z,95749.39
2023-01-17T14:20:07.589Z,95768.55
2023-01-17T14:32:11.161Z,95803.94
2023-01-17T14:35:23.681Z,95813.03
2023-01-17T14:38:29.439Z,95816.71
2023-01-17T14:41:33.017Z,95817.13
2023-01-17T14:44:38.555Z,95816.11
2023-01-17T14:47:45.000Z,95815.38
2023-01-17T14:50:54.237Z,95820.73
2023-01-17T14:53:59.686Z,95823.05
2023-01-17T14:57:27.385Z,95819.85
2023-01-17T15:00:33.788Z,95819.29
2023-01-17T15:03:46.221Z,95822.08
2023-01-17T15:06:49.391Z,95828.12
2023-01-17T15:09:52.788Z,95826.26
2023-01-17T15:12:57.636Z,95834.64
2023-01-17T15:16:16.833Z,95839.52
2023-01-17T15:19:22.112Z,95841.14
2023-01-17T15:22:26.569Z,95842.52
2023-01-17T15:25:31.077Z,95841.42
2023-01-17T15:28:35.400Z,95847.94
2023-01-17T15:31:47.035Z,95849.51
2023-01-17T15:34:51.917Z,95851.27
2023-01-17T15:37:58.311Z,95849.77
2023-01-17T15:41:12.784Z,95845.29
2023-01-17T15:44:49.373Z,95844.55
2023-01-17T15:47:54.815Z,95840.64
2023-01-17T15:50:59.126Z,95836.55
2023-01-17T15:54:25.224Z,95829.77
2023-01-17T15:57:38.994Z,95823.54
2023-01-17T16:00:44.392Z,95816.37
2023-01-17T16:03:55.296Z,95808.72
2023-01-17T16:07:20.348Z,95811.90
2023-01-17T16:10:31.736Z,95805.64
2023-01-17T16:13:38.764Z,95806.59
2023-01-17T16:16:51.163Z,95806.21
2023-01-17T16:19:54.419Z,95797.13
2023-01-17T16:22:59.668Z,95788.52
2023-01-17T16:26:05.404Z,95784.50
2023-01-17T16:29:10.275Z,95776.84
2023-01-17T16:32:15.536Z,95770.66
2023-01-17T16:35:26.218Z,95785.88
2023-01-17T16:38:30.585Z,95792.52
2023-01-17T16:41:33.992Z,95794.11
2023-01-17T16:44:37.511Z,95793.20
2023-01-17T16:47:41.444Z,95792.23
2023-01-17T16:50:50.408Z,95786.13
2023-01-17T16:53:53.669Z,95777.48
2023-01-17T16:56:56.906Z,95770.55
2023-01-17T17:00:00.213Z,95767.41
2023-01-17T17:03:03.471Z,95766.05
2023-01-17T17:06:07.069Z,95761.56
2023-01-17T17:09:10.274Z,95760.58
2023-01-17T17:12:13.606Z,95758.76
2023-01-17T17:15:16.836Z,95762.24
2023-01-17T17:18:20.051Z,95754.53
2023-01-17T17:21:23.363Z,95753.07
2023-01-17T17:24:26.676Z,95754.09
2023-01-17T17:27:29.920Z,95755.84
2023-01-17T17:30:33.507Z,95755.13
2023-01-17T17:33:37.342Z,95754.31
2023-01-17T17:36:41.264Z,95753.70
2023-01-17T17:39:45.351Z,95747.53
2023-01-17T17:42:48.569Z,95743.41
2023-01-17T17:45:51.905Z,95757.52
2023-01-17T17:48:56.397Z,95762.67
2023-01-17T17:52:07.417Z,95771.41
2023-01-17T17:55:11.092Z,95781.14
2023-01-17T17:58:14.419Z,95781.27
2023-01-17T18:01:17.874Z,95781.35
2023-01-17T18:04:22.096Z,95780.45
2023-01-17T18:07:25.335Z,95781.91
2023-01-17T18:10:28.598Z,95784.33
2023-01-17T18:13:33.098Z,95787.96
2023-01-17T18:16:41.861Z,95796.73
2023-01-17T18:19:46.255Z,95799.09
2023-01-17T18:22:49.513Z,95805.64
2023-01-17T18:25:52.670Z,95819.35
2023-01-17T18:28:57.092Z,95820.64
2023-01-17T18:32:00.397Z,95815.08
2023-01-17T18:35:03.962Z,95812.85
2023-01-17T18:38:07.274Z,95818.69
2023-01-17T18:41:13.082Z,95815.10
2023-01-17T18:44:17.051Z,95812.39
2023-01-17T18:47:20.288Z,95817.19
2023-01-17T18:50:23.568Z,95823.08
2023-01-17T18:53:27.305Z,95826.54
2023-01-17T18:56:36.619Z,95828.88
2023-01-17T18:59:39.935Z,95831.98
2023-01-17T19:02:43.155Z,95831.91
2023-01-17T19:05:48.334Z,95833.64
2023-01-17T19:08:52.177Z,95833.10
2023-01-17T19:11:55.405Z,95836.06
2023-01-17T19:14:58.770Z,95833.52
2023-01-17T19:18:03.232Z,95824.23
2023-01-17T19:21:12.638Z,95816.38
2023-01-17T19:24:15.879Z,95808.00
2023-01-17T19:27:19.296Z,95807.85
2023-01-17T19:30:23.093Z,95797.98
2023-01-17T19:33:26.270Z,95791.11
2023-01-17T19:36:34.427Z,95785.92
2023-01-17T19:39:37.706Z,95778.64
2023-01-17T19:42:41.226Z,95769.48
2023-01-17T19:45:44.849Z,95766.23
2023-01-17T19:48:48.310Z,95760.23
2023-01-17T19:51:51.852Z,95755.73
2023-01-17T19:54:55.093Z,95755.02
2023-01-17T19:57:58.656Z,95753.20
2023-01-17T20:01:17.230Z,95757.73
2023-01-17T20:04:21.363Z,95757.88
2023-01-17T20:07:24.622Z,95768.75
2023-01-17T20:10:29.471Z,95773.95
2023-01-17T20:13:33.536Z,95761.84
2023-01-17T20:16:37.615Z,95750.20
2023-01-17T20:19:41.171Z,95746.25
2023-01-17T20:22:45.618Z,95748.84
2023-01-17T20:26:03.546Z,95746.60
2023-01-17T20:29:12.077Z,95741.20
2023-01-17T20:32:15.711Z,95737.05
2023-01-17T20:35:18.938Z,95727.41
2023-01-17T20:38:22.156Z,95719.15
2023-01-17T20:41:31.272Z,95718.20
2023-01-17T20:44:34.501Z,95714.16
2023-01-17T20:47:37.755Z,95706.44
2023-01-17T20:50:41.037Z,95704.75
2023-01-17T20:53:46.858Z,95707.45
2023-01-17T20:56:50.650Z,95709.96
2023-01-17T20:59:58.411Z,95720.17
2023-01-17T21:03:01.808Z,95724.10
2023-01-17T21:06:06.822Z,95731.52
2023-01-17T21:09:15.248Z,95743.17
2023-01-17T21:12:19.057Z,95752.27
2023-01-17T21:15:22.826Z,95748.32
2023-01-17T21:18:27.500Z,95739.58
2023-01-17T21:21:30.741Z,95731.23
2023-01-17T21:24:33.942Z,95725.00
2023-01-17T21:27:37.497Z,95725.08
2023-01-17T21:30:40.720Z,95728.16
2023-01-17T21:33:44.558Z,95722.71
2023-01-17T21:36:47.809Z,95719.45
2023-01-17T21:39:54.786Z,95720.98
2023-01-17T21:42:58.027Z,95723.92
2023-01-17T21:46:03.389Z,95737.90
2023-01-17T21:49:10.770Z,95754.52
2023-01-17T21:52:14.088Z,95763.02
2023-01-17T21:55:36.162Z,95765.05
2023-01-17T21:58:45.646Z,95749.09
2023-01-17T22:01:49.030Z,95738.64
2023-01-17T22:04:54.521Z,95743.95
2023-01-17T22:08:13.128Z,95745.99
2023-01-17T22:11:19.365Z,95741.81
2023-01-17T22:14:22.568Z,95734.45
2023-01-17T22:17:25.786Z,95727.06
2023-01-17T22:20:29.382Z,95718.85
2023-01-17T22:23:32.803Z,95719.89
2023-01-17T22:26:36.033Z,95708.02
2023-01-17T22:29:39.548Z,95719.46
2023-01-17T22:32:42.803Z,95715.13
2023-01-17T22:35:46.054Z,95710.14
2023-01-17T22:38:49.652Z,95709.84
2023-01-17T22:41:52.823Z,95697.58
2023-01-17T22:44:56.002Z,95698.65
2023-01-17T22:47:59.214Z,95683.58
2023-01-17T22:51:03.726Z,95683.48
2023-01-17T22:54:07.235Z,95681.43
2023-01-17T22:57:10.458Z,95668.60
2023-01-17T23:00:17.159Z,95655.93
2023-01-17T23:03:20.655Z,95653.89
2023-01-17T23:06:30.476Z,95648.58
2023-01-17T23:09:33.850Z,95640.71
2023-01-17T23:12:37.081Z,95630.44
2023-01-17T23:15:59.077Z,95631.58
2023-01-17T23:19:20.628Z,95632.95
2023-01-17T23:22:27.244Z,95634.33
2023-01-17T23:25:30.469Z,95637.27
2023-01-17T23:28:33.749Z,95630.89
2023-01-17T23:31:37.070Z,95620.39
2023-01-17T23:34:40.347Z,95623.54
2023-01-17T23:38:02.576Z,95620.55
2023-01-17T23:41:26.706Z,95618.59
2023-01-17T23:44:31.869Z,95614.98
2023-01-17T23:47:35.039Z,95611.27
2023-01-17T23:50:40.371Z,95604.33
2023-01-17T23:53:43.551Z,95596.77
2023-01-17T23:56:46.736Z,95598.48
2023-01-17T23:59:49.927Z,95598.89
